Time;durP1;ratioP1;P1;durP2;ratioP2;P2;SDS_P1;SDS_P2;PMS_P1;PMS_P2;Temp;Humidity;BMP_temperature;BMP_pressure;BME280_temperature;BME280_humidity;BME280_pressure;Samples;Min_cycle;Max_cycle;Signal;HPM_P1;HPM_P2
2024/03/05 00:02:17;;;;;;;36.33;18.27;;;;;;;9.05;100.00;99217.91;5086439;28;20023;-62
2024/03/05 00:04:42;;;;;;;33.33;19.60;;;;;;;9.01;100.00;99218.41;5097460;28;20662;-60
2024/03/05 00:07:08;;;;;;;38.63;18.83;;;;;;;9.19;100.00;99216.41;5087973;28;20071;-60
2024/03/05 00:09:34;;;;;;;39.10;19.88;;;;;;;9.16;100.00;99211.47;5098501;28;20048;-62
2024/03/05 00:11:59;;;;;;;42.08;20.25;;;;;;;9.21;100.00;99206.50;5090601;28;20342;-63
2024/03/05 00:14:25;;;;;;;37.58;19.10;;;;;;;9.47;100.00;99204.53;5090611;28;20040;-61
2024/03/05 00:16:51;;;;;;;41.53;20.73;;;;;;;9.52;100.00;99207.47;5093184;28;20042;-61
2024/03/05 00:19:16;;;;;;;39.20;19.55;;;;;;;9.44;100.00;99204.84;5090375;28;20043;-61
2024/03/05 00:21:42;;;;;;;40.78;18.13;;;;;;;9.54;100.00;99210.78;5096901;28;20047;-63
2024/03/05 00:24:08;;;;;;;41.15;18.15;;;;;;;9.63;100.00;99203.66;5097191;28;20035;-62
2024/03/05 00:26:33;;;;;;;33.20;17.77;;;;;;;9.57;100.00;99194.59;5098498;28;20590;-62
2024/03/05 00:29:02;;;;;;;31.70;17.27;;;;;;;9.71;100.00;99194.88;5093562;28;20350;-62
2024/03/05 00:31:28;;;;;;;36.65;16.77;;;;;;;9.71;100.00;99189.59;5097736;28;20044;-64
2024/03/05 00:33:55;;;;;;;31.33;18.20;;;;;;;9.80;100.00;99185.94;5096719;28;20202;-62
2024/03/05 00:36:21;;;;;;;35.50;18.15;;;;;;;9.56;100.00;99173.59;5097918;28;20063;-62
2024/03/05 00:38:47;;;;;;;32.70;16.13;;;;;;;9.45;100.00;99166.88;5097581;28;20041;-62
2024/03/05 00:41:13;;;;;;;31.90;16.65;;;;;;;9.08;100.00;99175.31;5097483;28;20035;-63
2024/03/05 00:43:39;;;;;;;36.10;17.00;;;;;;;9.23;100.00;99167.53;5097821;28;20389;-62
2024/03/05 00:46:05;;;;;;;32.97;16.13;;;;;;;9.18;100.00;99162.75;5096227;28;20036;-62
2024/03/05 00:48:31;;;;;;;35.35;16.25;;;;;;;9.02;100.00;99172.50;5096822;28;20075;-64
2024/03/05 00:50:57;;;;;;;30.30;16.75;;;;;;;9.07;100.00;99162.28;5097269;28;20039;-62
2024/03/05 00:53:23;;;;;;;33.83;17.70;;;;;;;9.13;100.00;99157.16;5097272;28;20081;-63
2024/03/05 00:55:48;;;;;;;32.53;16.15;;;;;;;8.72;100.00;99156.34;5096868;28;20390;-62
2024/03/05 00:58:14;;;;;;;32.13;17.27;;;;;;;8.73;100.00;99154.53;5098224;28;20059;-62
2024/03/05 01:00:39;;;;;;;34.92;18.30;;;;;;;8.71;100.00;99149.41;5087431;28;20212;-62
2024/03/05 01:03:05;;;;;;;34.67;16.95;;;;;;;8.61;100.00;99148.75;5098058;28;20322;-64
2024/03/05 01:05:31;;;;;;;35.88;17.30;;;;;;;8.71;100.00;99156.50;5092096;28;20120;-62
2024/03/05 01:07:56;;;;;;;39.42;19.65;;;;;;;8.85;100.00;99153.22;5097647;28;20349;-63
2024/03/05 01:10:22;;;;;;;39.00;18.17;;;;;;;8.98;100.00;99147.44;5096494;28;20273;-62
2024/03/05 01:12:48;;;;;;;35.40;18.92;;;;;;;9.05;100.00;99156.34;5097485;28;20028;-62
2024/03/05 01:15:13;;;;;;;37.30;18.98;;;;;;;9.04;100.00;99150.22;5096940;28;20039;-63
2024/03/05 01:17:42;;;;;;;35.65;18.10;;;;;;;9.18;100.00;99156.66;5097532;28;20044;-62
2024/03/05 01:20:15;;;;;;;35.67;17.42;;;;;;;9.09;100.00;99147.91;5096542;28;20044;-62
2024/03/05 01:22:42;;;;;;;38.40;19.43;;;;;;;8.90;100.00;99142.97;5097296;28;20059;-62
2024/03/05 01:25:08;;;;;;;37.25;18.40;;;;;;;8.94;100.00;99136.38;5097024;28;20461;-64
2024/03/05 01:27:34;;;;;;;31.15;17.80;;;;;;;9.11;100.00;99139.81;5096975;28;20046;-63
2024/03/05 01:29:59;;;;;;;39.88;17.98;;;;;;;8.88;100.00;99140.50;5096217;28;20063;-62
2024/03/05 01:32:28;;;;;;;42.13;18.83;;;;;;;8.70;100.00;99129.28;5096827;28;20028;-63
2024/03/05 01:34:55;;;;;;;36.50;17.95;;;;;;;8.80;100.00;99131.75;5095973;28;20036;-64
2024/03/05 01:37:23;;;;;;;36.17;16.80;;;;;;;8.64;100.00;99125.50;5088680;28;20047;-64
2024/03/05 01:39:49;;;;;;;39.28;18.50;;;;;;;8.68;100.00;99139.19;5098307;28;20341;-62
2024/03/05 01:42:14;;;;;;;40.85;18.20;;;;;;;8.49;100.00;99137.69;5095527;28;20028;-62
2024/03/05 01:44:40;;;;;;;38.75;17.80;;;;;;;8.35;100.00;99138.34;5097206;28;20088;-62
2024/03/05 01:47:06;;;;;;;39.05;19.08;;;;;;;8.47;100.00;99139.66;5094109;28;20199;-63
2024/03/05 01:49:32;;;;;;;35.90;17.38;;;;;;;8.50;100.00;99134.06;5097555;28;20040;-62
2024/03/05 01:51:58;;;;;;;38.42;17.83;;;;;;;8.32;100.00;99114.84;5084873;28;20032;-62
2024/03/05 01:54:28;;;;;;;38.88;18.90;;;;;;;8.36;100.00;99131.25;5092869;28;20284;-63
2024/03/05 01:56:59;;;;;;;46.05;19.60;;;;;;;8.27;100.00;99139.06;5086740;28;20040;-64
2024/03/05 01:59:25;;;;;;;42.38;21.48;;;;;;;8.50;100.00;99138.50;5098288;28;20100;-62
2024/03/05 02:01:52;;;;;;;46.80;21.23;;;;;;;8.41;100.00;99134.22;5092072;28;20040;-62
2024/03/05 02:04:18;;;;;;;41.08;20.40;;;;;;;8.40;100.00;99132.56;5099879;28;20036;-62
2024/03/05 02:06:44;;;;;;;39.88;19.60;;;;;;;8.44;100.00;99136.53;5095306;28;20157;-64
2024/03/05 02:09:13;;;;;;;46.05;18.88;;;;;;;8.48;100.00;99133.41;5094238;28;20356;-62
2024/03/05 02:11:40;;;;;;;50.00;19.75;;;;;;;8.37;100.00;99138.16;5097305;28;20272;-62
2024/03/05 02:14:07;;;;;;;47.50;19.80;;;;;;;8.18;100.00;99124.22;5094119;28;20103;-62
2024/03/05 02:16:33;;;;;;;38.90;18.17;;;;;;;7.92;100.00;99141.94;5098789;28;20103;-62
2024/03/05 02:18:59;;;;;;;44.95;19.08;;;;;;;7.79;100.00;99136.31;5088109;28;20091;-61
2024/03/05 02:21:24;;;;;;;51.00;20.90;;;;;;;7.65;100.00;99133.28;5099761;28;20317;-62
2024/03/05 02:23:50;;;;;;;48.40;19.40;;;;;;;7.57;100.00;99135.88;5090031;28;20036;-63
2024/03/05 02:26:20;;;;;;;31.10;13.68;;;;;;;7.41;100.00;99132.34;5099890;28;20023;-64
2024/03/05 02:28:48;;;;;;;43.45;16.92;;;;;;;7.30;100.00;99139.53;5092464;28;20394;-62
2024/03/05 02:31:14;;;;;;;55.97;21.33;;;;;;;7.39;100.00;99131.69;5098588;28;20069;-62
2024/03/05 02:33:42;;;;;;;54.20;21.77;;;;;;;7.21;100.00;99140.44;5091531;28;20032;-62
2024/03/05 02:36:08;;;;;;;57.70;21.48;;;;;;;7.16;100.00;99140.06;5099588;28;20027;-63
2024/03/05 02:38:34;;;;;;;70.80;25.17;;;;;;;7.16;100.00;99139.25;5090704;28;20040;-62
2024/03/05 02:41:00;;;;;;;72.97;27.10;;;;;;;7.16;100.00;99137.44;5099435;28;20210;-62
2024/03/05 02:43:25;;;;;;;69.38;26.05;;;;;;;7.19;100.00;99131.88;5095468;28;20041;-62
2024/03/05 02:45:51;;;;;;;68.95;26.85;;;;;;;7.23;100.00;99145.56;5092727;28;20343;-62
2024/03/05 02:48:17;;;;;;;73.82;26.42;;;;;;;7.09;100.00;99141.69;5097559;28;20054;-62
2024/03/05 02:50:43;;;;;;;83.05;25.55;;;;;;;7.03;100.00;99139.66;5093338;28;20043;-62
2024/03/05 02:53:08;;;;;;;80.57;26.50;;;;;;;6.82;100.00;99108.44;5097409;28;20046;-63
2024/03/05 02:55:37;;;;;;;85.53;29.45;;;;;;;6.89;100.00;99134.94;5084848;28;20036;-63
2024/03/05 02:58:03;;;;;;;89.13;32.15;;;;;;;7.12;100.00;99128.22;5098603;28;20081;-62
2024/03/05 03:00:29;;;;;;;88.72;34.80;;;;;;;6.99;100.00;99125.97;5087047;28;20036;-62
2024/03/05 03:02:55;;;;;;;96.10;30.60;;;;;;;7.01;100.00;99131.91;5099604;28;20111;-62
2024/03/05 03:05:23;;;;;;;100.15;34.90;;;;;;;7.10;100.00;99119.63;5090997;28;20032;-63
2024/03/05 03:07:50;;;;;;;87.28;28.40;;;;;;;6.94;100.00;99123.00;5099327;28;20052;-62
2024/03/05 03:10:16;;;;;;;100.90;36.60;;;;;;;6.98;100.00;99115.59;5088526;28;20105;-62
2024/03/05 03:12:42;;;;;;;89.50;32.63;;;;;;;7.00;100.00;99113.66;5098518;28;20479;-62
2024/03/05 03:15:08;;;;;;;105.93;36.88;;;;;;;7.14;100.00;99113.06;5089864;28;20035;-62
2024/03/05 03:17:35;;;;;;;115.15;37.42;;;;;;;7.06;100.00;99110.41;5098504;28;20048;-62
2024/03/05 03:20:01;;;;;;;105.57;36.50;;;;;;;7.14;100.00;99110.44;5093118;28;20036;-62
2024/03/05 03:22:27;;;;;;;111.25;37.00;;;;;;;7.17;100.00;99114.56;5092050;28;20103;-64
2024/03/05 03:24:52;;;;;;;107.47;38.05;;;;;;;7.19;100.00;99112.59;5096119;28;20109;-63
2024/03/05 03:27:19;;;;;;;104.05;37.67;;;;;;;7.25;100.00;99106.72;5092956;28;20314;-62
2024/03/05 03:29:45;;;;;;;110.68;36.10;;;;;;;7.16;100.00;99107.66;5097128;28;20074;-63
2024/03/05 03:32:11;;;;;;;118.97;38.47;;;;;;;7.21;100.00;99113.28;5084701;28;20035;-62
2024/03/05 03:34:40;;;;;;;89.47;30.08;;;;;;;7.13;100.00;99114.06;5097663;28;20302;-64
2024/03/05 03:37:07;;;;;;;102.40;35.50;;;;;;;7.32;100.00;99105.97;5090197;28;20141;-63
2024/03/05 03:39:32;;;;;;;114.03;38.67;;;;;;;7.31;100.00;99106.94;5099079;28;20097;-62
2024/03/05 03:41:58;;;;;;;113.20;39.20;;;;;;;7.26;100.00;99106.56;5090625;28;20054;-63
2024/03/05 03:44:24;;;;;;;119.65;36.90;;;;;;;7.40;100.00;99105.19;5099234;28;20344;-62
2024/03/05 03:46:50;;;;;;;105.75;37.17;;;;;;;7.38;100.00;99115.06;5087990;28;20345;-62
2024/03/05 03:49:19;;;;;;;109.78;37.20;;;;;;;7.53;100.00;99118.75;5089492;28;20035;-62
2024/03/05 03:51:45;;;;;;;130.00;39.67;;;;;;;7.58;100.00;99113.00;5097929;28;20028;-62
2024/03/05 03:54:10;;;;;;;114.60;39.08;;;;;;;7.74;100.00;99122.78;5098027;28;20050;-65
2024/03/05 03:56:36;;;;;;;108.95;37.28;;;;;;;7.75;100.00;99121.78;5098253;28;20044;-64
2024/03/05 03:59:02;;;;;;;120.35;41.72;;;;;;;7.74;100.00;99125.41;5098207;28;20333;-62
2024/03/05 04:01:29;;;;;;;110.82;36.08;;;;;;;7.93;100.00;99125.16;5097597;28;20032;-62
2024/03/05 04:03:56;;;;;;;101.88;36.40;;;;;;;8.04;100.00;99124.84;5098072;28;20222;-62
2024/03/05 04:06:22;;;;;;;109.10;36.15;;;;;;;8.18;100.00;99128.69;5097898;28;20039;-63
2024/03/05 04:08:47;;;;;;;101.43;37.47;;;;;;;8.09;100.00;99124.38;5097719;28;20253;-64
2024/03/05 04:11:13;;;;;;;100.88;33.05;;;;;;;8.24;100.00;99122.75;5098033;28;20031;-62
2024/03/05 04:13:38;;;;;;;94.50;31.13;;;;;;;8.19;100.00;99125.88;5098074;28;20036;-62
2024/03/05 04:16:05;;;;;;;88.63;30.63;;;;;;;8.02;100.00;99121.56;5097867;28;20031;-62
2024/03/05 04:18:31;;;;;;;93.35;31.48;;;;;;;7.78;100.00;99127.56;5097391;28;20044;-62
2024/03/05 04:20:56;;;;;;;101.30;34.60;;;;;;;7.81;100.00;99123.78;5098849;28;20035;-61
2024/03/05 04:23:22;;;;;;;97.95;32.08;;;;;;;7.72;100.00;99115.03;5091211;28;20326;-62
2024/03/05 04:25:47;;;;;;;92.40;31.17;;;;;;;7.58;100.00;99116.47;5098723;28;20039;-62
2024/03/05 04:28:13;;;;;;;97.93;33.33;;;;;;;7.50;100.00;99113.78;5097439;28;20279;-64
2024/03/05 04:30:41;;;;;;;101.88;32.53;;;;;;;7.73;100.00;99116.69;5097840;28;20100;-63
2024/03/05 04:33:09;;;;;;;103.00;34.72;;;;;;;7.61;100.00;99117.97;5097290;28;20035;-62
2024/03/05 04:35:36;;;;;;;101.70;30.30;;;;;;;7.67;100.00;99117.31;5096985;28;20040;-61
2024/03/05 04:38:02;;;;;;;97.68;31.92;;;;;;;7.59;100.00;99112.84;5093450;28;20099;-62
2024/03/05 04:40:29;;;;;;;97.32;34.22;;;;;;;7.55;100.00;99115.94;5097288;28;20103;-63
2024/03/05 04:42:55;;;;;;;101.13;35.08;;;;;;;7.62;100.00;99107.25;5097952;28;20050;-63
2024/03/05 04:45:21;;;;;;;98.68;33.60;;;;;;;7.56;100.00;99121.06;5096037;28;20455;-62
2024/03/05 04:47:47;;;;;;;90.68;31.08;;;;;;;7.53;100.00;99118.75;5095368;28;20060;-61
2024/03/05 04:50:14;;;;;;;98.22;33.33;;;;;;;7.66;100.00;99115.66;5097250;28;20036;-62
2024/03/05 04:52:39;;;;;;;98.68;33.75;;;;;;;7.68;100.00;99119.78;5091928;28;20063;-61
2024/03/05 04:55:05;;;;;;;78.55;27.02;;;;;;;7.63;100.00;99114.19;5097325;28;20050;-62
2024/03/05 04:57:31;;;;;;;95.95;30.27;;;;;;;7.43;100.00;99123.31;5096312;28;20106;-61
2024/03/05 04:59:57;;;;;;;98.57;34.45;;;;;;;7.49;100.00;99121.84;5096818;28;20032;-62
2024/03/05 05:02:23;;;;;;;90.10;30.30;;;;;;;7.51;100.00;99115.44;5096203;28;20036;-63
2024/03/05 05:04:49;;;;;;;109.20;35.45;;;;;;;7.61;100.00;99115.31;5096892;28;20277;-62
2024/03/05 05:07:16;;;;;;;102.60;34.78;;;;;;;7.71;100.00;99116.03;5096583;28;20044;-62
2024/03/05 05:09:41;;;;;;;98.03;30.30;;;;;;;7.61;100.00;99124.06;5096987;28;20107;-62
2024/03/05 05:12:07;;;;;;;96.15;31.63;;;;;;;7.61;100.00;99110.88;5096916;28;20085;-63
2024/03/05 05:14:33;;;;;;;92.20;34.00;;;;;;;7.71;100.00;99116.03;5096950;28;20103;-64
2024/03/05 05:17:00;;;;;;;104.32;35.20;;;;;;;7.94;100.00;99111.00;5096452;28;20032;-62
2024/03/05 05:19:25;;;;;;;100.88;33.78;;;;;;;7.82;100.00;99113.09;5096874;28;20384;-62
2024/03/05 05:21:51;;;;;;;100.53;35.15;;;;;;;7.90;100.00;99107.03;5096420;28;20044;-62
2024/03/05 05:24:18;;;;;;;100.60;33.13;;;;;;;7.79;100.00;99110.78;5094964;28;20044;-64
2024/03/05 05:26:44;;;;;;;97.25;33.15;;;;;;;7.81;100.00;99110.63;5095465;28;20051;-64
2024/03/05 05:29:09;;;;;;;107.65;36.17;;;;;;;7.81;100.00;99107.97;5096421;28;20067;-62
2024/03/05 05:31:36;;;;;;;110.75;36.25;;;;;;;7.86;100.00;99103.88;5095911;28;20028;-62
2024/03/05 05:34:02;;;;;;;115.25;38.15;;;;;;;7.91;100.00;99101.59;5099599;28;20043;-62
2024/03/05 05:36:28;;;;;;;98.97;35.92;;;;;;;8.01;100.00;99112.81;5100250;28;20044;-64
2024/03/05 05:38:54;;;;;;;116.60;37.13;;;;;;;7.85;100.00;99122.50;5100901;28;20130;-64
2024/03/05 05:41:21;;;;;;;110.55;35.60;;;;;;;7.87;100.00;99117.88;5099833;28;20040;-63
2024/03/05 05:43:48;;;;;;;102.00;32.35;;;;;;;7.95;100.00;99113.47;5098880;28;20108;-60
2024/03/05 05:46:21;;;;;;;98.38;34.40;;;;;;;8.00;100.00;99116.44;5100878;28;20032;-60
2024/03/05 05:48:49;;;;;;;102.05;35.33;;;;;;;8.08;100.00;99112.19;5097974;28;20039;-60
2024/03/05 05:51:15;;;;;;;98.13;35.78;;;;;;;8.16;100.00;99109.56;5100103;28;20028;-63
2024/03/05 05:53:41;;;;;;;108.53;35.13;;;;;;;8.14;100.00;99111.53;5098126;28;20051;-62
2024/03/05 05:56:06;;;;;;;96.93;33.67;;;;;;;8.38;100.00;99110.81;5099715;28;20213;-62
2024/03/05 05:58:35;;;;;;;104.80;34.55;;;;;;;8.44;100.00;99099.59;5098836;28;20040;-65
2024/03/05 06:01:05;;;;;;;97.03;32.10;;;;;;;8.30;100.00;99101.81;5099454;28;20040;-63
2024/03/05 06:03:36;;;;;;;93.00;34.05;;;;;;;8.52;100.00;99099.59;5096544;28;20128;-63
2024/03/05 06:06:03;;;;;;;92.60;31.60;;;;;;;8.53;100.00;99107.34;5098491;28;20042;-65
2024/03/05 06:08:29;;;;;;;95.07;31.58;;;;;;;8.40;100.00;99108.81;5098878;28;20052;-65
2024/03/05 06:10:56;;;;;;;91.82;30.02;;;;;;;8.55;100.00;99102.72;5098572;28;20332;-60
2024/03/05 06:13:24;;;;;;;99.15;32.78;;;;;;;8.39;100.00;99105.38;5098806;28;20028;-63
2024/03/05 06:15:50;;;;;;;98.38;31.80;;;;;;;8.53;100.00;99107.34;5098972;28;20031;-63
2024/03/05 06:18:16;;;;;;;95.63;31.70;;;;;;;8.50;100.00;99104.22;5099166;28;20221;-65
2024/03/05 06:20:43;;;;;;;96.47;33.95;;;;;;;8.33;100.00;99100.75;5096248;28;20028;-65
2024/03/05 06:23:09;;;;;;;90.75;29.80;;;;;;;8.29;100.00;99100.19;5098078;28;20035;-63
2024/03/05 06:25:34;;;;;;;96.03;33.83;;;;;;;8.38;100.00;99094.97;5096291;28;20024;-61
2024/03/05 06:28:00;;;;;;;97.45;36.25;;;;;;;8.45;100.00;99095.97;5099195;28;20066;-60
2024/03/05 06:30:26;;;;;;;104.80;33.33;;;;;;;8.40;100.00;99106.19;5096937;28;20040;-63
2024/03/05 06:32:52;;;;;;;103.35;35.00;;;;;;;8.53;100.00;99103.88;5097827;28;20047;-64
2024/03/05 06:35:23;;;;;;;103.43;32.67;;;;;;;8.48;100.00;99099.09;5095631;28;20345;-63
2024/03/05 06:37:50;;;;;;;95.22;35.97;;;;;;;8.66;100.00;99098.13;5098120;28;20044;-63
2024/03/05 06:40:19;;;;;;;91.85;31.95;;;;;;;8.63;100.00;99104.53;5097273;28;20318;-62
2024/03/05 06:42:51;;;;;;;90.72;33.88;;;;;;;8.69;100.00;99111.81;5098513;28;20206;-62
2024/03/05 06:45:30;;;;;;;114.60;39.13;;;;;;;8.81;100.00;99104.38;5096500;28;20035;-63
2024/03/05 06:47:57;;;;;;;92.80;31.13;;;;;;;8.63;100.00;99102.72;5098057;28;20066;-63
2024/03/05 06:50:23;;;;;;;83.65;29.73;;;;;;;8.50;100.00;99098.94;5097388;28;20036;-64
2024/03/05 06:58:18;;;;;;;81.70;29.70;;;;;;;8.73;100.00;99099.09;5097913;28;20355;-62
2024/03/05 07:00:46;;;;;;;86.63;32.88;;;;;;;8.81;100.00;99099.09;5097459;28;20043;-63
2024/03/05 07:03:13;;;;;;;78.32;29.95;;;;;;;8.71;100.00;99098.44;5097721;28;20028;-64
2024/03/05 07:05:38;;;;;;;87.80;31.42;;;;;;;8.80;100.00;99098.28;5097365;28;20032;-62
2024/03/05 07:08:06;;;;;;;75.82;26.48;;;;;;;8.69;100.00;99101.25;5097519;28;20123;-62
2024/03/05 07:10:36;;;;;;;79.32;31.80;;;;;;;8.73;100.00;99099.09;5098110;28;20032;-62
2024/03/05 07:13:02;;;;;;;83.55;33.42;;;;;;;8.92;100.00;99109.31;5096202;28;20085;-64
2024/03/05 07:15:29;;;;;;;86.57;31.60;;;;;;;8.77;100.00;99103.06;5093851;28;20123;-64
2024/03/05 07:17:55;;;;;;;81.68;30.15;;;;;;;8.78;100.00;99100.25;5092732;28;20040;-62
2024/03/05 07:20:27;;;;;;;89.93;30.75;;;;;;;9.01;100.00;99104.84;5096966;28;20161;-62
2024/03/05 07:22:54;;;;;;;81.28;27.38;;;;;;;9.08;100.00;99106.66;5096242;28;20036;-62
2024/03/05 07:25:22;;;;;;;81.28;31.33;;;;;;;9.05;100.00;99099.06;5097101;28;20043;-62
2024/03/05 07:27:49;;;;;;;79.60;28.95;;;;;;;9.05;100.00;99101.69;5096890;28;20047;-64
2024/03/05 07:30:19;;;;;;;90.43;35.22;;;;;;;8.99;100.00;99107.66;5098178;28;20145;-63
2024/03/05 07:32:47;;;;;;;84.55;32.42;;;;;;;9.09;100.00;99100.38;5096183;28;20161;-62
2024/03/05 07:35:12;;;;;;;85.90;31.90;;;;;;;9.11;100.00;99103.66;5097599;28;20247;-63
2024/03/05 07:37:44;;;;;;;92.13;32.38;;;;;;;9.22;100.00;99118.34;5098068;28;20036;-62
2024/03/05 07:40:17;;;;;;;88.63;30.65;;;;;;;9.13;100.00;99108.78;5097401;28;20269;-63
2024/03/05 07:42:47;;;;;;;91.80;34.78;;;;;;;9.47;100.00;99116.47;5096273;28;20268;-63
2024/03/05 07:45:17;;;;;;;98.18;34.85;;;;;;;9.56;100.00;99118.09;5096959;28;20382;-63
2024/03/05 07:47:43;;;;;;;92.28;30.73;;;;;;;9.64;100.00;99122.53;5095829;28;20024;-64
2024/03/05 07:50:12;;;;;;;84.65;29.90;;;;;;;9.76;100.00;99126.44;5097273;28;20039;-64
2024/03/05 07:52:42;;;;;;;86.25;30.23;;;;;;;9.72;100.00;99123.31;5097065;28;20043;-63
2024/03/05 07:55:09;;;;;;;86.90;30.02;;;;;;;9.68;100.00;99126.50;5095006;28;20040;-62
2024/03/05 07:57:38;;;;;;;73.63;27.10;;;;;;;9.77;100.00;99130.75;5097124;28;20035;-62
2024/03/05 08:00:14;;;;;;;73.25;29.13;;;;;;;9.45;100.00;99132.50;5095691;28;20043;-63
2024/03/05 08:02:42;;;;;;;88.07;28.92;;;;;;;9.32;100.00;99128.72;5097805;28;20036;-64
2024/03/05 08:05:08;;;;;;;82.80;29.42;;;;;;;9.11;100.00;99130.09;5095088;28;20035;-63
2024/03/05 08:07:38;;;;;;;78.55;28.30;;;;;;;9.02;100.00;99130.25;5097083;28;20046;-62
2024/03/05 08:10:08;;;;;;;88.00;29.67;;;;;;;9.00;100.00;99127.78;5093457;28;20119;-62
2024/03/05 08:12:39;;;;;;;80.25;30.10;;;;;;;9.17;100.00;99132.06;5096626;28;20032;-62
2024/03/05 08:15:18;;;;;;;90.45;29.80;;;;;;;9.09;100.00;99134.69;5093815;28;20073;-62
2024/03/05 08:17:48;;;;;;;73.18;28.95;;;;;;;9.10;100.00;99138.16;5096551;28;20028;-62
2024/03/05 08:20:27;;;;;;;90.65;30.50;;;;;;;9.08;100.00;99134.88;5095409;28;20236;-64
2024/03/05 08:22:55;;;;;;;83.47;29.35;;;;;;;8.99;100.00;99130.59;5096827;28;20044;-64
2024/03/05 08:25:21;;;;;;;83.35;27.98;;;;;;;9.22;100.00;99128.91;5095142;28;20228;-64
2024/03/05 08:27:54;;;;;;;77.30;28.25;;;;;;;9.27;100.00;99122.13;5096428;28;20035;-62
2024/03/05 08:30:25;;;;;;;78.22;28.27;;;;;;;9.14;100.00;99119.19;5095709;28;20031;-62
2024/03/05 08:32:52;;;;;;;80.78;29.35;;;;;;;9.31;100.00;99129.72;5096433;28;20103;-63
2024/03/05 08:35:18;;;;;;;80.35;30.38;;;;;;;9.26;100.00;99124.94;5094219;28;20035;-64
2024/03/05 08:37:47;;;;;;;82.45;29.13;;;;;;;9.43;100.00;99131.84;5095881;28;20028;-64
2024/03/05 08:40:18;;;;;;;77.93;28.88;;;;;;;9.22;100.00;99131.53;5095154;28;20036;-63
2024/03/05 08:42:45;;;;;;;80.50;28.10;;;;;;;9.30;100.00;99128.88;5095318;28;20048;-63
2024/03/05 08:45:12;;;;;;;81.07;29.38;;;;;;;9.24;100.00;99132.19;5095421;28;20450;-63
2024/03/05 08:47:39;;;;;;;75.72;28.05;;;;;;;9.32;100.00;99128.72;5095716;28;20040;-63
2024/03/05 08:50:06;;;;;;;91.35;30.77;;;;;;;9.19;100.00;99130.06;5095051;28;20043;-63
2024/03/05 08:52:31;;;;;;;80.43;31.27;;;;;;;9.47;100.00;99141.09;5095950;28;20050;-63
2024/03/05 08:54:57;;;;;;;74.65;28.10;;;;;;;9.46;100.00;99141.25;5097125;28;20064;-64
2024/03/05 08:57:25;;;;;;;76.47;30.58;;;;;;;9.53;100.00;99136.94;5094434;28;20305;-64
2024/03/05 08:59:51;;;;;;;89.07;28.98;;;;;;;9.58;100.00;99142.53;5096862;28;20161;-63
2024/03/05 09:02:17;;;;;;;74.95;27.38;;;;;;;9.60;100.00;99144.03;5094902;28;20055;-63
2024/03/05 09:04:42;;;;;;;79.10;27.33;;;;;;;9.42;100.00;99142.59;5095760;28;20029;-62
2024/03/05 09:07:09;;;;;;;74.32;27.55;;;;;;;9.19;100.00;99145.91;5093924;28;20039;-64
2024/03/05 09:09:34;;;;;;;77.63;25.23;;;;;;;9.34;100.00;99153.16;5095512;28;20229;-64
2024/03/05 09:12:00;;;;;;;77.10;29.77;;;;;;;9.45;100.00;99156.28;5094983;28;20069;-62
2024/03/05 09:14:26;;;;;;;73.28;24.27;;;;;;;9.33;100.00;99152.31;5095587;28;20059;-62
2024/03/05 09:16:53;;;;;;;85.43;29.98;;;;;;;9.43;100.00;99153.00;5093173;28;21004;-62
2024/03/05 09:19:21;;;;;;;79.57;27.63;;;;;;;9.34;100.00;99150.50;5095705;28;20378;-64
2024/03/05 09:21:49;;;;;;;79.10;29.10;;;;;;;9.39;100.00;99158.78;5094014;28;20091;-64
2024/03/05 09:24:15;;;;;;;88.38;29.58;;;;;;;9.21;100.00;99159.78;5095793;28;20035;-62
2024/03/05 09:26:40;;;;;;;83.82;31.10;;;;;;;9.18;100.00;99161.94;5095443;28;20105;-63
2024/03/05 09:29:06;;;;;;;80.43;28.15;;;;;;;9.20;100.00;99167.88;5095341;28;20048;-63
2024/03/05 09:31:32;;;;;;;80.50;27.75;;;;;;;9.15;100.00;99157.81;5096310;28;20062;-63
2024/03/05 09:33:59;;;;;;;85.47;28.13;;;;;;;9.09;100.00;99160.28;5093012;28;20032;-63
2024/03/05 09:36:24;;;;;;;84.95;30.33;;;;;;;9.32;100.00;99163.06;5096609;28;20032;-63
2024/03/05 09:38:50;;;;;;;85.95;28.75;;;;;;;9.39;100.00;99151.69;5094337;28;20048;-62
2024/03/05 09:41:16;;;;;;;86.40;30.50;;;;;;;9.36;100.00;99159.91;5094507;28;20063;-64
2024/03/05 09:43:45;;;;;;;80.18;27.90;;;;;;;9.39;100.00;99162.25;5095059;28;20066;-64
2024/03/05 09:46:14;;;;;;;81.88;27.38;;;;;;;9.49;100.00;99170.00;5095474;28;20047;-62
2024/03/05 09:48:40;;;;;;;86.25;29.60;;;;;;;9.43;100.00;99152.16;5094516;28;20040;-62
2024/03/05 09:51:09;;;;;;;81.93;29.17;;;;;;;9.54;100.00;99160.56;5095506;28;20046;-62
2024/03/05 09:53:35;;;;;;;76.07;27.23;;;;;;;9.51;100.00;99176.75;5095009;28;20056;-64
2024/03/05 09:56:02;;;;;;;80.82;28.38;;;;;;;9.46;100.00;99171.16;5095131;28;20039;-64
2024/03/05 09:58:28;;;;;;;91.68;31.20;;;;;;;9.47;100.00;99172.81;5095114;28;20254;-63
2024/03/05 10:00:54;;;;;;;77.53;29.33;;;;;;;9.72;100.00;99173.56;5092659;28;20036;-63
2024/03/05 10:03:20;;;;;;;79.80;31.02;;;;;;;9.81;100.00;99179.66;5092617;28;20030;-63
2024/03/05 10:05:45;;;;;;;92.35;30.58;;;;;;;9.87;100.00;99168.38;5095707;28;20038;-63
2024/03/05 10:08:11;;;;;;;85.88;28.45;;;;;;;10.09;100.00;99172.09;5095255;28;20354;-63
2024/03/05 10:10:37;;;;;;;82.57;27.10;;;;;;;10.24;100.00;99168.56;5095204;28;20028;-64
2024/03/05 10:13:03;;;;;;;74.07;26.77;;;;;;;10.38;100.00;99160.88;5095707;28;20032;-64
2024/03/05 10:15:29;;;;;;;72.55;25.55;;;;;;;10.46;100.00;99166.16;5096123;28;20027;-63
2024/03/05 10:17:55;;;;;;;66.15;24.98;;;;;;;10.56;100.00;99166.75;5095876;28;20377;-63
2024/03/05 10:20:28;;;;;;;62.45;22.85;;;;;;;10.61;100.00;99169.69;5098609;28;20024;-62
2024/03/05 10:22:57;;;;;;;63.38;24.50;;;;;;;10.72;100.00;99166.63;5099162;28;20152;-64
2024/03/05 10:25:23;;;;;;;59.08;22.40;;;;;;;10.65;100.00;99173.63;5098871;28;20148;-64
2024/03/05 10:27:53;;;;;;;69.65;24.05;;;;;;;10.80;100.00;99176.34;5098723;28;20032;-63
2024/03/05 10:30:33;;;;;;;62.95;25.08;;;;;;;10.86;100.00;99165.84;5097159;28;20230;-62
2024/03/05 10:33:10;;;;;;;60.40;23.10;;;;;;;10.91;100.00;99157.38;5099986;28;20035;-61
2024/03/05 10:35:41;;;;;;;64.63;24.20;;;;;;;10.95;100.00;99169.25;5098529;28;20051;-61
2024/03/05 10:38:09;;;;;;;53.08;21.40;;;;;;;10.98;100.00;99168.91;5097231;28;20039;-64
2024/03/05 10:40:36;;;;;;;65.55;22.98;;;;;;;11.07;100.00;99172.31;5097618;28;20043;-63
2024/03/05 10:43:04;;;;;;;59.17;23.25;;;;;;;11.09;100.00;99163.19;5096316;28;20036;-63
2024/03/05 10:45:32;;;;;;;61.10;24.38;;;;;;;11.12;100.00;99162.81;5093132;28;20032;-63
2024/03/05 10:48:00;;;;;;;62.08;23.05;;;;;;;11.12;100.00;99159.34;5089149;28;20386;-63
2024/03/05 10:50:28;;;;;;;57.67;23.90;;;;;;;11.09;100.00;99162.34;5096630;28;20032;-62
2024/03/05 10:52:57;;;;;;;72.55;27.55;;;;;;;11.07;100.00;99157.22;5097962;28;20063;-64
2024/03/05 10:55:23;;;;;;;70.50;27.63;;;;;;;11.09;100.00;99162.34;5096317;28;20663;-64
2024/03/05 10:58:13;;;;;;;65.30;25.35;;;;;;;11.09;100.00;99160.53;5095987;28;20279;-63
2024/03/05 11:00:40;;;;;;;61.03;25.55;;;;;;;11.15;100.00;99161.63;5096937;28;20337;-63
2024/03/05 11:03:10;;;;;;;66.60;26.00;;;;;;;11.26;100.00;99165.69;5098294;28;20043;-63
2024/03/05 11:05:40;;;;;;;68.82;26.58;;;;;;;11.26;100.00;99161.19;5096555;28;20103;-63
2024/03/05 11:08:13;;;;;;;64.82;24.45;;;;;;;11.20;100.00;99161.91;5097980;28;20048;-60
2024/03/05 11:10:41;;;;;;;69.82;25.27;;;;;;;11.10;100.00;99166.66;5097259;28;20126;-61
2024/03/05 11:13:08;;;;;;;70.38;25.42;;;;;;;11.12;100.00;99156.69;5097245;28;20036;-63
2024/03/05 11:15:35;;;;;;;71.38;26.42;;;;;;;11.18;100.00;99162.09;5096926;28;20047;-62
2024/03/05 11:18:01;;;;;;;74.20;24.45;;;;;;;11.18;100.00;99155.97;5097282;28;20040;-61
2024/03/05 11:20:40;;;;;;;71.80;26.42;;;;;;;11.22;100.00;99159.91;5096503;28;20108;-63